createdAt,value
2018-12-15T00:00:57.637Z,-0.99
2018-12-15T00:02:00.608Z,-1.01
2018-12-15T00:03:03.526Z,-0.98
2018-12-15T00:04:06.454Z,-0.90
2018-12-15T00:05:10.537Z,-0.90
2018-12-15T00:06:17.257Z,-0.97
2018-12-15T00:07:21.876Z,-0.94
2018-12-15T00:08:24.934Z,-0.95
2018-12-15T00:09:27.832Z,-0.98
2018-12-15T00:10:30.833Z,-0.99
2018-12-15T00:11:34.527Z,-0.98
2018-12-15T00:12:44.322Z,-0.98
2018-12-15T00:13:47.876Z,-1.00
2018-12-15T00:14:52.525Z,-0.99
2018-12-15T00:15:56.530Z,-1.00
2018-12-15T00:17:05.752Z,-1.02
2018-12-15T00:18:07.682Z,-0.99
2018-12-15T00:19:12.764Z,-0.98
2018-12-15T00:20:16.764Z,-0.97
2018-12-15T00:21:19.714Z,-0.98
2018-12-15T00:22:22.497Z,-1.02
2018-12-15T00:23:26.497Z,-1.05
2018-12-15T00:24:29.329Z,-1.01
2018-12-15T00:25:32.594Z,-0.99
2018-12-15T00:26:35.557Z,-0.98
2018-12-15T00:27:39.552Z,-0.97
2018-12-15T00:28:42.374Z,-0.96
2018-12-15T00:29:46.722Z,-0.93
2018-12-15T00:30:49.809Z,-0.90
2018-12-15T00:31:52.718Z,-0.91
2018-12-15T00:32:55.755Z,-0.92
2018-12-15T00:33:59.704Z,-0.98
2018-12-15T00:35:02.504Z,-0.98
2018-12-15T00:36:05.612Z,-0.98
2018-12-15T00:37:08.927Z,-0.98
2018-12-15T00:38:12.321Z,-0.98
2018-12-15T00:39:15.208Z,-0.98
2018-12-15T00:40:18.040Z,-0.99
2018-12-15T00:41:23.484Z,-1.00
2018-12-15T00:42:26.731Z,-1.01
2018-12-15T00:43:30.250Z,-1.00
2018-12-15T00:44:33.318Z,-0.92
2018-12-15T00:45:36.538Z,-0.89
2018-12-15T00:46:39.580Z,-0.95
2018-12-15T00:47:42.532Z,-0.97
2018-12-15T00:48:45.397Z,-0.99
2018-12-15T00:49:49.895Z,-0.97
2018-12-15T00:50:52.683Z,-0.95
2018-12-15T00:51:55.459Z,-0.94
2018-12-15T00:52:58.226Z,-0.92
2018-12-15T00:54:03.993Z,-0.97
2018-12-15T00:55:06.772Z,-0.96
2018-12-15T00:56:10.238Z,-0.95
2018-12-15T00:57:13.461Z,-0.98
2018-12-15T00:58:16.223Z,-0.98
2018-12-15T00:59:18.970Z,-0.96
2018-12-15T01:00:22.769Z,-0.96
2018-12-15T01:01:25.834Z,-0.96
2018-12-15T01:02:29.479Z,-0.95
2018-12-15T01:03:32.554Z,-0.93
2018-12-15T01:04:35.396Z,-0.91
2018-12-15T01:05:38.682Z,-0.94
2018-12-15T01:06:41.808Z,-0.93
2018-12-15T01:07:44.660Z,-0.90
2018-12-15T01:08:48.368Z,-0.87
2018-12-15T01:09:51.333Z,-0.94
2018-12-15T01:10:54.300Z,-0.95
2018-12-15T01:11:57.618Z,-0.95
2018-12-15T01:13:01.015Z,-0.93
2018-12-15T01:14:04.327Z,-0.99
2018-12-15T01:15:09.547Z,-0.96
2018-12-15T01:16:13.642Z,-0.95
2018-12-15T01:17:20.480Z,-0.97
2018-12-15T01:18:21.621Z,-0.99
2018-12-15T01:19:25.578Z,-1.02
2018-12-15T01:20:28.402Z,-0.99
2018-12-15T01:21:31.622Z,-0.98
2018-12-15T01:22:34.764Z,-0.98
2018-12-15T01:23:38.654Z,-0.99
2018-12-15T01:24:42.168Z,-1.01
2018-12-15T01:25:45.351Z,-1.02
2018-12-15T01:26:48.426Z,-1.00
2018-12-15T01:27:51.642Z,-0.99
2018-12-15T01:28:54.619Z,-0.99
2018-12-15T01:29:57.501Z,-1.02
2018-12-15T01:31:00.618Z,-1.00
2018-12-15T01:32:03.736Z,-1.02
2018-12-15T01:33:06.593Z,-1.04
2018-12-15T01:34:09.761Z,-1.04
2018-12-15T01:35:12.592Z,-1.04
2018-12-15T01:36:15.385Z,-1.04
2018-12-15T01:37:18.168Z,-1.06
2018-12-15T01:38:21.081Z,-1.07
2018-12-15T01:39:23.880Z,-1.04
2018-12-15T01:40:27.301Z,-1.06
2018-12-15T01:41:30.182Z,-1.03
2018-12-15T01:42:33.289Z,-1.02
2018-12-15T01:43:36.683Z,-1.00
2018-12-15T01:44:39.621Z,-1.04
2018-12-15T01:45:42.713Z,-1.06
2018-12-15T01:46:45.898Z,-1.05
2018-12-15T01:47:49.244Z,-1.05
2018-12-15T01:48:52.505Z,-1.05
2018-12-15T01:49:55.655Z,-1.05
2018-12-15T01:50:58.891Z,-1.06
2018-12-15T01:52:02.083Z,-1.05
2018-12-15T01:53:05.178Z,-1.07
2018-12-15T01:54:08.355Z,-1.08
2018-12-15T01:55:11.159Z,-1.08
2018-12-15T01:56:14.126Z,-1.06
2018-12-15T01:57:16.915Z,-1.05
2018-12-15T01:58:19.684Z,-1.06
2018-12-15T01:59:23.000Z,-1.07
2018-12-15T02:00:25.808Z,-1.04
2018-12-15T02:01:29.187Z,-1.00
2018-12-15T02:02:32.098Z,-0.97
2018-12-15T02:03:34.994Z,-0.97
2018-12-15T02:04:40.320Z,-0.97
2018-12-15T02:05:43.663Z,-1.02
2018-12-15T02:06:46.665Z,-1.04
2018-12-15T02:07:50.691Z,-1.03
2018-12-15T02:08:53.634Z,-1.02
2018-12-15T02:09:56.518Z,-0.99
2018-12-15T02:11:00.164Z,-1.00
2018-12-15T02:12:03.547Z,-1.01
2018-12-15T02:13:06.650Z,-0.98
2018-12-15T02:14:09.720Z,-0.93
2018-12-15T02:15:12.690Z,-0.98
2018-12-15T02:16:15.621Z,-0.95
2018-12-15T02:17:18.394Z,-0.99
2018-12-15T02:18:21.692Z,-0.96
2018-12-15T02:19:24.794Z,-0.90
2018-12-15T02:20:27.579Z,-0.89
2018-12-15T02:21:30.471Z,-0.93
2018-12-15T02:22:33.451Z,-0.98
2018-12-15T02:23:36.272Z,-1.04
2018-12-15T02:24:41.082Z,-0.96
2018-12-15T02:25:44.028Z,-0.97
2018-12-15T02:26:46.783Z,-0.99
2018-12-15T02:27:49.695Z,-1.00
2018-12-15T02:28:52.549Z,-1.05
2018-12-15T02:29:55.386Z,-1.08
2018-12-15T02:30:58.731Z,-1.10
2018-12-15T02:32:01.735Z,-1.09
2018-12-15T02:33:04.623Z,-1.10
2018-12-15T02:34:07.482Z,-1.07
2018-12-15T02:35:10.272Z,-1.12
2018-12-15T02:36:13.197Z,-1.13
2018-12-15T02:37:16.427Z,-1.10
2018-12-15T02:38:19.413Z,-1.11
2018-12-15T02:39:22.316Z,-1.09
2018-12-15T02:40:25.182Z,-1.05
2018-12-15T02:41:28.031Z,-1.06
2018-12-15T02:42:30.822Z,-1.06
2018-12-15T02:43:33.960Z,-1.07
2018-12-15T02:44:36.809Z,-1.06
2018-12-15T02:45:39.551Z,-1.06
2018-12-15T02:46:42.348Z,-1.07
2018-12-15T02:47:45.123Z,-1.04
2018-12-15T02:48:48.047Z,-1.02
2018-12-15T02:49:51.317Z,-1.01
2018-12-15T02:50:54.093Z,-1.02
2018-12-15T02:51:57.075Z,-0.99
2018-12-15T02:53:00.003Z,-1.02
2018-12-15T02:54:02.733Z,-1.03
2018-12-15T02:55:05.681Z,-1.04
2018-12-15T02:56:09.038Z,-1.04
2018-12-15T02:57:12.922Z,-1.02
2018-12-15T02:58:15.705Z,-1.01
2018-12-15T02:59:18.451Z,-1.03
2018-12-15T03:00:21.262Z,-0.99
2018-12-15T03:01:24.121Z,-1.06
2018-12-15T03:02:27.523Z,-1.04
2018-12-15T03:03:31.440Z,-1.08
2018-12-15T03:04:34.190Z,-1.07
2018-12-15T03:05:37.099Z,-1.07
2018-12-15T03:06:40.345Z,-1.08
2018-12-15T03:07:43.880Z,-1.10
2018-12-15T03:08:47.269Z,-1.09
2018-12-15T03:09:50.096Z,-1.08
2018-12-15T03:10:53.095Z,-1.07
2018-12-15T03:11:56.058Z,-1.06
2018-12-15T03:12:58.975Z,-1.05
2018-12-15T03:14:01.978Z,-1.02
2018-12-15T03:15:05.351Z,-1.05
2018-12-15T03:16:08.294Z,-1.08
2018-12-15T03:17:11.268Z,-1.12
2018-12-15T03:18:14.064Z,-1.13
2018-12-15T03:19:17.062Z,-1.09
2018-12-15T03:20:20.098Z,-1.14
2018-12-15T03:21:23.586Z,-1.14
2018-12-15T03:22:26.459Z,-1.10
2018-12-15T03:23:29.353Z,-1.08
2018-12-15T03:24:32.248Z,-1.04
2018-12-15T03:25:34.987Z,-1.05
2018-12-15T03:26:37.911Z,-1.07
2018-12-15T03:27:41.244Z,-1.08
2018-12-15T03:28:44.118Z,-1.14
2018-12-15T03:29:47.037Z,-1.10
2018-12-15T03:30:49.966Z,-1.13
2018-12-15T03:31:52.879Z,-1.16
2018-12-15T03:32:56.449Z,-1.17
2018-12-15T03:33:59.638Z,-1.18
2018-12-15T03:35:02.770Z,-1.20
2018-12-15T03:36:05.698Z,-1.22
2018-12-15T03:37:08.657Z,-1.20
2018-12-15T03:38:11.560Z,-1.20
2018-12-15T03:39:14.447Z,-1.19
2018-12-15T03:40:17.692Z,-1.15
2018-12-15T03:41:21.533Z,-1.17
2018-12-15T03:42:24.449Z,-1.14
2018-12-15T03:43:27.341Z,-1.18
2018-12-15T03:44:30.212Z,-1.19
2018-12-15T03:45:33.669Z,-1.22
2018-12-15T03:46:36.629Z,-1.26
2018-12-15T03:47:39.456Z,-1.29
2018-12-15T03:48:42.264Z,-1.23
2018-12-15T03:49:45.815Z,-1.24
2018-12-15T03:50:48.756Z,-1.22
2018-12-15T03:51:51.872Z,-1.20
2018-12-15T03:52:54.776Z,-1.20
2018-12-15T03:53:57.654Z,-1.22
2018-12-15T03:55:00.480Z,-1.21
2018-12-15T03:56:03.386Z,-1.22
2018-12-15T03:57:06.189Z,-1.21
2018-12-15T03:58:09.413Z,-1.21
2018-12-15T03:59:12.306Z,-1.21
2018-12-15T04:00:15.283Z,-1.23
2018-12-15T04:01:18.702Z,-1.22
2018-12-15T04:02:21.654Z,-1.23
2018-12-15T04:03:24.509Z,-1.29
2018-12-15T04:04:27.983Z,-1.30
2018-12-15T04:05:31.061Z,-1.32
2018-12-15T04:06:34.010Z,-1.32
2018-12-15T04:07:37.066Z,-1.30
2018-12-15T04:08:40.102Z,-1.32
2018-12-15T04:09:43.271Z,-1.32
2018-12-15T04:10:46.481Z,-1.28
2018-12-15T04:11:49.679Z,-1.31
2018-12-15T04:12:52.425Z,-1.32
2018-12-15T04:13:55.479Z,-1.30
2018-12-15T04:14:58.199Z,-1.31
2018-12-15T04:16:01.213Z,-1.31
2018-12-15T04:17:05.235Z,-1.30
2018-12-15T04:18:08.254Z,-1.29
2018-12-15T04:19:11.050Z,-1.27
2018-12-15T04:20:13.785Z,-1.25
2018-12-15T04:21:16.580Z,-1.25
2018-12-15T04:22:19.500Z,-1.25
2018-12-15T04:23:22.856Z,-1.24
2018-12-15T04:24:25.835Z,-1.22
2018-12-15T04:25:28.593Z,-1.24
2018-12-15T04:26:31.509Z,-1.22
2018-12-15T04:27:34.933Z,-1.20
2018-12-15T04:28:37.731Z,-1.28
2018-12-15T04:29:41.285Z,-1.35
2018-12-15T04:30:44.204Z,-1.36
2018-12-15T04:31:47.152Z,-1.35
2018-12-15T04:32:50.544Z,-1.38
2018-12-15T04:33:53.718Z,-1.37
2018-12-15T04:34:57.101Z,-1.34
2018-12-15T04:36:00.475Z,-1.35
2018-12-15T04:37:03.867Z,-1.34
2018-12-15T04:38:06.983Z,-1.35
2018-12-15T04:39:10.222Z,-1.37
2018-12-15T04:40:13.311Z,-1.35
2018-12-15T04:41:16.085Z,-1.34
2018-12-15T04:42:19.142Z,-1.34
2018-12-15T04:43:21.927Z,-1.34
2018-12-15T04:44:24.826Z,-1.32
2018-12-15T04:45:27.709Z,-1.35
2018-12-15T04:46:30.883Z,-1.33
2018-12-15T04:47:34.045Z,-1.32
2018-12-15T04:48:37.000Z,-1.32
2018-12-15T04:49:39.814Z,-1.32
2018-12-15T04:50:42.553Z,-1.41
2018-12-15T04:51:45.319Z,-1.39
2018-12-15T04:52:48.055Z,-1.40
2018-12-15T04:53:51.153Z,-1.38
2018-12-15T04:54:56.996Z,-1.34
2018-12-15T04:55:59.763Z,-1.37
2018-12-15T04:57:04.027Z,-1.40
2018-12-15T04:58:07.195Z,-1.39
2018-12-15T04:59:10.979Z,-1.33
2018-12-15T05:00:14.096Z,-1.33
2018-12-15T05:01:16.842Z,-1.31
2018-12-15T05:02:19.626Z,-1.32
2018-12-15T05:03:22.979Z,-1.37
2018-12-15T05:04:25.849Z,-1.39
2018-12-15T05:05:29.873Z,-1.37
2018-12-15T05:06:33.502Z,-1.37
2018-12-15T05:07:37.443Z,-1.37
2018-12-15T05:08:40.171Z,-1.36
2018-12-15T05:09:43.184Z,-1.34
2018-12-15T05:10:46.099Z,-1.34
2018-12-15T05:11:49.135Z,-1.34
2018-12-15T05:12:52.434Z,-1.34
2018-12-15T05:13:55.472Z,-1.36
2018-12-15T05:14:58.335Z,-1.35
2018-12-15T05:16:01.631Z,-1.36
2018-12-15T05:17:05.138Z,-1.37
2018-12-15T05:18:08.548Z,-1.37
2018-12-15T05:19:11.714Z,-1.33
2018-12-15T05:20:14.819Z,-1.34
2018-12-15T05:21:18.204Z,-1.36
2018-12-15T05:22:21.665Z,-1.44
2018-12-15T05:23:24.475Z,-1.46
2018-12-15T05:24:27.326Z,-1.49
2018-12-15T05:25:30.886Z,-1.45
2018-12-15T05:26:33.970Z,-1.45
2018-12-15T05:27:37.282Z,-1.47
2018-12-15T05:28:40.197Z,-1.50
2018-12-15T05:29:43.207Z,-1.50
2018-12-15T05:30:47.025Z,-1.48
2018-12-15T05:31:50.741Z,-1.45
2018-12-15T05:32:53.849Z,-1.42
2018-12-15T05:33:57.009Z,-1.53
2018-12-15T05:34:59.907Z,-1.55
2018-12-15T05:36:03.115Z,-1.57
2018-12-15T05:37:06.382Z,-1.56
2018-12-15T05:38:10.848Z,-1.57
2018-12-15T05:39:13.944Z,-1.52
2018-12-15T05:40:17.059Z,-1.57
2018-12-15T05:41:19.858Z,-1.59
2018-12-15T05:42:22.905Z,-1.57
2018-12-15T05:43:25.729Z,-1.58
2018-12-15T05:44:28.771Z,-1.58
2018-12-15T05:45:31.868Z,-1.58
2018-12-15T05:46:34.663Z,-1.58
2018-12-15T05:47:37.794Z,-1.58
2018-12-15T05:48:41.743Z,-1.55
2018-12-15T05:49:44.869Z,-1.52
2018-12-15T05:50:48.085Z,-1.52
2018-12-15T05:51:51.520Z,-1.53
2018-12-15T05:52:54.342Z,-1.48
2018-12-15T05:53:57.206Z,-1.39
2018-12-15T05:54:59.994Z,-1.44
2018-12-15T05:56:02.858Z,-1.45
2018-12-15T05:57:06.214Z,-1.47
2018-12-15T05:58:08.975Z,-1.52
2018-12-15T05:59:11.993Z,-1.57
2018-12-15T06:00:14.988Z,-1.54
2018-12-15T06:01:17.963Z,-1.50
2018-12-15T06:02:21.383Z,-1.49
2018-12-15T06:03:24.270Z,-1.50
2018-12-15T06:04:27.242Z,-1.57
2018-12-15T06:05:31.702Z,-1.58
2018-12-15T06:06:34.609Z,-1.51
2018-12-15T06:07:37.537Z,-1.53
2018-12-15T06:08:40.567Z,-1.52
2018-12-15T06:09:43.776Z,-1.50
2018-12-15T06:10:46.602Z,-1.52
2018-12-15T06:11:49.398Z,-1.57
2018-12-15T06:12:52.502Z,-1.56
2018-12-15T06:13:55.605Z,-1.57
2018-12-15T06:14:58.489Z,-1.56
2018-12-15T06:16:01.810Z,-1.56
2018-12-15T06:17:04.600Z,-1.58
2018-12-15T06:18:07.394Z,-1.60
2018-12-15T06:19:10.203Z,-1.56
2018-12-15T06:20:13.133Z,-1.54
2018-12-15T06:21:16.071Z,-1.56
2018-12-15T06:22:19.397Z,-1.51
2018-12-15T06:23:22.378Z,-1.51
2018-12-15T06:24:25.496Z,-1.49
2018-12-15T06:25:28.346Z,-1.50
2018-12-15T06:26:32.562Z,-1.52
2018-12-15T06:27:35.316Z,-1.55
2018-12-15T06:28:38.456Z,-1.52
2018-12-15T06:29:41.262Z,-1.53
2018-12-15T06:44:54.962Z,-1.53
2018-12-15T06:45:58.213Z,-1.57
2018-12-15T06:47:00.988Z,-1.58
2018-12-15T06:48:04.969Z,-1.57
2018-12-15T06:49:09.043Z,-1.58
2018-12-15T06:50:11.842Z,-1.65
2018-12-15T06:51:14.601Z,-1.68
2018-12-15T06:52:17.606Z,-1.68
2018-12-15T06:53:20.345Z,-1.66
2018-12-15T06:54:23.276Z,-1.64
2018-12-15T06:55:26.361Z,-1.61
2018-12-15T06:56:29.128Z,-1.61
2018-12-15T06:57:33.691Z,-1.59
2018-12-15T06:58:36.678Z,-1.60
2018-12-15T06:59:39.486Z,-1.64
2018-12-15T07:00:43.292Z,-1.61
2018-12-15T07:01:46.796Z,-1.58
2018-12-15T07:02:49.906Z,-1.59
2018-12-15T07:03:53.029Z,-1.57
2018-12-15T07:04:56.007Z,-1.58
2018-12-15T07:05:59.071Z,-1.58
2018-12-15T07:07:02.203Z,-1.59
2018-12-15T07:08:05.489Z,-1.60
2018-12-15T07:09:08.734Z,-1.59
2018-12-15T07:10:11.497Z,-1.57
2018-12-15T07:11:14.717Z,-1.59
2018-12-15T07:12:17.546Z,-1.62
2018-12-15T07:13:23.085Z,-1.57
2018-12-15T07:14:26.553Z,-1.57
2018-12-15T07:15:29.802Z,-1.56
2018-12-15T08:23:14.562Z,-1.46
2018-12-15T08:24:17.632Z,-1.46
2018-12-15T08:25:20.626Z,-1.45
2018-12-15T08:26:23.412Z,-1.46
2018-12-15T08:27:26.578Z,-1.48
2018-12-15T08:28:29.309Z,-1.44
2018-12-15T08:29:32.336Z,-1.42
2018-12-15T08:30:36.233Z,-1.45
2018-12-15T08:31:39.001Z,-1.48
2018-12-15T08:32:43.403Z,-1.49
2018-12-15T08:33:46.182Z,-1.49
2018-12-15T08:34:49.257Z,-1.51
2018-12-15T08:35:53.233Z,-1.48
2018-12-15T08:36:56.503Z,-1.48
2018-12-15T08:38:02.992Z,-1.45
2018-12-15T08:39:05.846Z,-1.48
2018-12-15T08:40:10.652Z,-1.49
2018-12-15T08:41:15.242Z,-1.49
2018-12-15T08:42:18.264Z,-1.49
2018-12-15T08:43:22.297Z,-1.47
2018-12-15T08:44:25.464Z,-1.44
2018-12-15T08:45:28.714Z,-1.43
2018-12-15T08:46:31.666Z,-1.43
2018-12-15T08:47:34.975Z,-1.48
2018-12-15T08:48:39.426Z,-1.48
2018-12-15T08:49:42.362Z,-1.47
2018-12-15T08:50:46.492Z,-1.48
2018-12-15T08:51:49.485Z,-1.41
2018-12-15T08:52:52.635Z,-1.41
2018-12-15T08:53:55.762Z,-1.44
2018-12-15T08:54:59.245Z,-1.41
2018-12-15T08:56:02.344Z,-1.40
2018-12-15T08:57:05.133Z,-1.41
2018-12-15T08:58:08.119Z,-1.37
2018-12-15T08:59:11.326Z,-1.41
2018-12-15T09:00:14.301Z,-1.40
2018-12-15T09:01:17.581Z,-1.39
2018-12-15T09:02:20.413Z,-1.41
2018-12-15T09:03:23.751Z,-1.38
2018-12-15T09:04:28.193Z,-1.39
2018-12-15T09:05:32.481Z,-1.37
2018-12-15T09:06:36.692Z,-1.38
2018-12-15T09:07:40.371Z,-1.39
2018-12-15T09:08:43.156Z,-1.40
2018-12-15T09:09:45.988Z,-1.43
2018-12-15T09:10:49.814Z,-1.43
2018-12-15T09:11:52.954Z,-1.39
2018-12-15T09:12:59.178Z,-1.43
2018-12-15T09:14:03.445Z,-1.45
2018-12-15T09:15:06.986Z,-1.41
2018-12-15T09:16:10.320Z,-1.41
2018-12-15T09:17:13.081Z,-1.40
2018-12-15T09:18:15.901Z,-1.44
2018-12-15T09:19:18.761Z,-1.43
2018-12-15T09:20:22.780Z,-1.40
2018-12-15T09:21:27.639Z,-1.39
2018-12-15T09:22:30.859Z,-1.41
2018-12-15T09:23:35.344Z,-1.41
2018-12-15T09:24:38.541Z,-1.41
2018-12-15T09:25:41.769Z,-1.43
2018-12-15T09:26:45.453Z,-1.40
2018-12-15T09:27:48.690Z,-1.34
2018-12-15T09:28:51.901Z,-1.33
2018-12-15T09:29:55.981Z,-1.33
2018-12-15T09:30:59.084Z,-1.33
2018-12-15T09:32:02.527Z,-1.33
2018-12-15T09:33:06.298Z,-1.35
2018-12-15T09:34:09.648Z,-1.30
2018-12-15T09:35:13.300Z,-1.30
2018-12-15T09:36:16.074Z,-1.31
2018-12-15T09:37:20.640Z,-1.34
2018-12-15T09:38:23.626Z,-1.31
2018-12-15T09:39:27.839Z,-1.32
2018-12-15T09:40:31.981Z,-1.34
2018-12-15T09:41:34.860Z,-1.32
2018-12-15T09:42:38.014Z,-1.33
2018-12-15T09:43:41.276Z,-1.35
2018-12-15T09:44:44.562Z,-1.34
2018-12-15T09:45:47.802Z,-1.30
2018-12-15T09:46:51.069Z,-1.24
2018-12-15T09:47:55.040Z,-1.30
2018-12-15T09:48:58.357Z,-1.30
2018-12-15T09:50:01.898Z,-1.29
2018-12-15T09:51:05.499Z,-1.29
2018-12-15T09:52:10.009Z,-1.26
2018-12-15T09:53:12.866Z,-1.26
2018-12-15T09:54:17.375Z,-1.28
2018-12-15T09:55:20.704Z,-1.27
2018-12-15T09:56:24.517Z,-1.22
2018-12-15T09:57:27.719Z,-1.23
2018-12-15T09:58:30.739Z,-1.27
2018-12-15T09:59:34.716Z,-1.28
2018-12-15T10:00:37.812Z,-1.26
2018-12-15T10:01:40.684Z,-1.23
2018-12-15T10:02:44.380Z,-1.22
2018-12-15T10:03:48.431Z,-1.21
2018-12-15T10:04:51.380Z,-1.21
2018-12-15T10:05:54.822Z,-1.21
2018-12-15T10:06:58.484Z,-1.23
2018-12-15T10:08:01.386Z,-1.21
2018-12-15T10:09:04.801Z,-1.25
2018-12-15T10:10:07.895Z,-1.22
2018-12-15T10:11:10.641Z,-1.23
2018-12-15T10:12:14.355Z,-1.24
2018-12-15T10:13:18.309Z,-1.21
2018-12-15T10:14:21.120Z,-1.17
2018-12-15T10:15:24.283Z,-1.15
2018-12-15T10:16:27.080Z,-1.14
2018-12-15T10:17:30.096Z,-1.12
2018-12-15T10:18:33.129Z,-1.13
2018-12-15T10:19:36.862Z,-1.14
2018-12-15T10:20:39.757Z,-1.16
2018-12-15T10:21:43.700Z,-1.19
2018-12-15T10:22:46.503Z,-1.17
2018-12-15T10:23:49.741Z,-1.13
2018-12-15T10:24:52.897Z,-1.20
2018-12-15T10:25:57.360Z,-1.22
2018-12-15T10:27:00.188Z,-1.21
2018-12-15T10:28:03.559Z,-1.20
2018-12-15T10:29:08.819Z,-1.21
2018-12-15T10:30:18.678Z,-1.16
2018-12-15T10:31:26.466Z,-1.10
2018-12-15T10:32:34.552Z,-1.09
2018-12-15T10:33:37.275Z,-1.13
2018-12-15T10:34:42.760Z,-1.15
2018-12-15T10:35:45.572Z,-1.13
2018-12-15T10:36:48.465Z,-1.17
2018-12-15T10:37:52.635Z,-1.21
2018-12-15T10:38:55.711Z,-1.23
2018-12-15T10:39:58.506Z,-1.20
2018-12-15T10:41:02.710Z,-1.17
2018-12-15T10:42:06.616Z,-1.17
2018-12-15T10:43:09.446Z,-1.16
2018-12-15T10:44:12.297Z,-1.14
2018-12-15T10:45:16.029Z,-1.17
2018-12-15T10:46:19.996Z,-1.15
2018-12-15T10:47:23.394Z,-1.12
2018-12-15T10:48:26.477Z,-1.06
2018-12-15T10:49:30.753Z,-1.07
2018-12-15T10:50:34.223Z,-1.04
2018-12-15T10:51:38.522Z,-1.09
2018-12-15T10:52:42.162Z,-1.05
2018-12-15T10:53:45.445Z,-1.08
2018-12-15T10:54:49.583Z,-1.09
2018-12-15T10:55:52.407Z,-1.05
2018-12-15T10:56:56.136Z,-1.02
2018-12-15T10:57:59.376Z,-1.08
2018-12-15T10:59:02.323Z,-1.12
2018-12-15T11:01:20.361Z,-1.14
2018-12-15T11:02:23.419Z,-1.14
2018-12-15T11:03:26.943Z,-1.10
2018-12-15T11:04:29.845Z,-1.16
2018-12-15T11:05:33.123Z,-1.17
2018-12-15T11:06:38.316Z,-1.15
2018-12-15T11:07:41.673Z,-1.21
2018-12-15T11:08:46.303Z,-1.22
2018-12-15T11:09:49.523Z,-1.21
2018-12-15T11:10:54.080Z,-1.18
2018-12-15T11:12:00.852Z,-1.14
2018-12-15T11:13:06.748Z,-1.16
2018-12-15T11:14:09.650Z,-1.21
2018-12-15T11:15:13.692Z,-1.22
2018-12-15T11:16:16.526Z,-1.21
2018-12-15T11:17:24.958Z,-1.19
2018-12-15T11:18:27.733Z,-1.23
2018-12-15T11:19:37.150Z,-1.24
2018-12-15T11:20:38.336Z,-1.15
2018-12-15T11:21:41.960Z,-1.13
2018-12-15T11:22:45.120Z,-1.15
2018-12-15T11:23:49.249Z,-1.15
2018-12-15T11:24:53.516Z,-1.16
2018-12-15T11:25:56.813Z,-1.10
2018-12-15T11:27:00.569Z,-1.10
2018-12-15T11:28:04.481Z,-1.09
2018-12-15T11:29:10.129Z,-1.05
2018-12-15T11:44:09.138Z,-1.09
2018-12-15T11:45:12.115Z,-1.15
2018-12-15T11:46:15.347Z,-1.21
2018-12-15T11:47:19.021Z,-1.19
2018-12-15T11:48:23.240Z,-1.18
2018-12-15T11:49:29.177Z,-1.19
2018-12-15T11:50:33.719Z,-1.14
2018-12-15T11:51:39.239Z,-1.12
2018-12-15T11:52:42.425Z,-1.15
2018-12-15T11:53:45.738Z,-1.15
2018-12-15T11:54:49.878Z,-1.13
2018-12-15T11:55:53.914Z,-1.13
2018-12-15T11:56:57.194Z,-1.14
2018-12-15T11:58:01.708Z,-1.21
2018-12-15T11:59:05.668Z,-1.21
2018-12-15T12:00:08.817Z,-1.24
2018-12-15T12:01:13.170Z,-1.24
2018-12-15T12:02:16.099Z,-1.21
2018-12-15T12:03:20.354Z,-1.21
2018-12-15T12:04:23.208Z,-1.18
2018-12-15T12:05:26.993Z,-1.20
2018-12-15T12:06:30.398Z,-1.20
2018-12-15T12:07:33.508Z,-1.25
2018-12-15T12:08:36.349Z,-1.30
2018-12-15T12:09:40.595Z,-1.32
2018-12-15T12:10:43.454Z,-1.26
2018-12-15T12:11:47.238Z,-1.25
2018-12-15T12:12:50.529Z,-1.24
2018-12-15T12:14:00.061Z,-1.30
2018-12-15T12:14:59.078Z,-1.30
2018-12-15T12:16:01.899Z,-1.32
2018-12-15T12:17:04.767Z,-1.25
2018-12-15T12:18:08.259Z,-1.24
2018-12-15T12:19:11.614Z,-1.22
2018-12-15T12:20:14.530Z,-1.25
2018-12-15T12:21:17.630Z,-1.29
2018-12-15T12:22:21.509Z,-1.28
2018-12-15T12:23:24.665Z,-1.30
2018-12-15T12:24:27.663Z,-1.33
2018-12-15T12:25:31.104Z,-1.32
2018-12-15T12:26:34.022Z,-1.31
2018-12-15T12:27:37.679Z,-1.33
2018-12-15T12:28:40.693Z,-1.37
2018-12-15T12:29:50.549Z,-1.33
2018-12-15T12:30:55.393Z,-1.32
2018-12-15T12:31:58.885Z,-1.27
2018-12-15T12:33:01.850Z,-1.31
2018-12-15T12:34:05.564Z,-1.30
2018-12-15T12:35:09.468Z,-1.32
2018-12-15T12:36:14.606Z,-1.31
2018-12-15T12:37:17.462Z,-1.26
2018-12-15T12:38:20.695Z,-1.25
2018-12-15T12:39:23.739Z,-1.27
2018-12-15T12:40:26.604Z,-1.31
2018-12-15T12:41:30.240Z,-1.29
2018-12-15T12:42:33.325Z,-1.26
2018-12-15T12:43:36.158Z,-1.22
2018-12-15T12:44:42.649Z,-1.25
2018-12-15T12:45:46.468Z,-1.24
2018-12-15T12:46:49.530Z,-1.27
2018-12-15T12:47:53.371Z,-1.26
2018-12-15T12:48:57.002Z,-1.23
2018-12-15T12:49:59.954Z,-1.23
2018-12-15T12:51:03.964Z,-1.25
2018-12-15T12:52:07.609Z,-1.29
2018-12-15T12:53:11.360Z,-1.26
2018-12-15T12:54:16.093Z,-1.26
2018-12-15T12:55:19.785Z,-1.23
2018-12-15T12:56:28.541Z,-1.21
2018-12-15T12:57:32.594Z,-1.21
2018-12-15T12:58:35.797Z,-1.25
2018-12-15T12:59:39.528Z,-1.23
2018-12-15T13:00:42.777Z,-1.21
2018-12-15T13:01:45.697Z,-1.20
2018-12-15T13:02:48.889Z,-1.17
2018-12-15T13:03:51.736Z,-1.15
2018-12-15T13:04:54.657Z,-1.22
2018-12-15T13:05:57.665Z,-1.21
2018-12-15T13:07:00.491Z,-1.32
2018-12-15T13:08:03.327Z,-1.31
2018-12-15T13:09:08.429Z,-1.30
2018-12-15T13:10:11.293Z,-1.31
2018-12-15T13:11:15.088Z,-1.29
2018-12-15T13:12:19.061Z,-1.28
2018-12-15T13:13:24.653Z,-1.26
2018-12-15T13:14:27.484Z,-1.24
2018-12-15T13:15:30.832Z,-1.18
2018-12-15T13:16:37.518Z,-1.20
2018-12-15T13:17:40.404Z,-1.19
2018-12-15T13:18:43.348Z,-1.20
2018-12-15T13:19:47.006Z,-1.20
2018-12-15T13:20:50.636Z,-1.17
2018-12-15T13:21:54.830Z,-1.20
2018-12-15T13:22:57.629Z,-1.20
2018-12-15T13:24:00.442Z,-1.21
2018-12-15T13:25:03.414Z,-1.16
2018-12-15T13:26:06.241Z,-1.14
2018-12-15T13:27:09.144Z,-1.17
2018-12-15T13:28:13.328Z,-1.18
2018-12-15T13:29:18.474Z,-1.29
2018-12-15T13:30:22.369Z,-1.29
2018-12-15T13:31:25.282Z,-1.25
2018-12-15T13:32:28.862Z,-1.23
2018-12-15T13:33:32.542Z,-1.19
2018-12-15T13:34:35.831Z,-1.23
2018-12-15T13:35:38.633Z,-1.23
2018-12-15T13:36:42.216Z,-1.18
2018-12-15T13:37:46.965Z,-1.15
2018-12-15T13:38:50.019Z,-1.15
2018-12-15T13:39:52.993Z,-1.15
2018-12-15T13:40:58.878Z,-1.13
2018-12-15T13:42:03.504Z,-1.12
2018-12-15T13:43:06.587Z,-1.14
2018-12-15T13:44:09.472Z,-1.17
2018-12-15T13:45:14.488Z,-1.16
2018-12-15T13:46:18.231Z,-1.13
2018-12-15T13:47:23.084Z,-1.15
2018-12-15T13:48:26.784Z,-1.18
2018-12-15T13:49:29.953Z,-1.14
2018-12-15T13:50:32.810Z,-1.16
2018-12-15T13:51:36.103Z,-1.15
2018-12-15T13:52:38.949Z,-1.24
2018-12-15T13:53:43.945Z,-1.21
2018-12-15T13:54:47.257Z,-1.16
2018-12-15T13:55:50.292Z,-1.20
2018-12-15T13:56:53.164Z,-1.30
2018-12-15T13:57:56.034Z,-1.31
2018-12-15T13:58:58.939Z,-1.32
2018-12-15T14:00:02.306Z,-1.30
2018-12-15T14:01:05.241Z,-1.27
2018-12-15T14:02:08.272Z,-1.27
2018-12-15T14:03:12.473Z,-1.24
2018-12-15T14:04:15.324Z,-1.25
2018-12-15T14:05:18.475Z,-1.29
2018-12-15T14:06:21.374Z,-1.23
2018-12-15T14:07:26.710Z,-1.20
2018-12-15T14:08:29.739Z,-1.20
2018-12-15T14:09:33.335Z,-1.24
2018-12-15T14:10:36.482Z,-1.27
2018-12-15T14:11:39.769Z,-1.26
2018-12-15T14:12:43.239Z,-1.26
2018-12-15T14:13:47.392Z,-1.29
2018-12-15T14:14:50.225Z,-1.32
2018-12-15T14:15:54.976Z,-1.38
2018-12-15T14:16:57.839Z,-1.30
2018-12-15T14:19:13.342Z,-1.36
2018-12-15T14:20:16.876Z,-1.41
2018-12-15T14:21:20.598Z,-1.37
2018-12-15T14:22:23.611Z,-1.40
2018-12-15T14:23:26.604Z,-1.36
2018-12-15T14:24:30.448Z,-1.33
2018-12-15T14:25:33.488Z,-1.37
2018-12-15T14:26:36.437Z,-1.37
2018-12-15T14:27:39.527Z,-1.38
2018-12-15T14:28:43.412Z,-1.36
2018-12-15T14:29:47.447Z,-1.36
2018-12-15T14:30:52.047Z,-1.41
2018-12-15T14:31:57.103Z,-1.44
2018-12-15T14:33:00.619Z,-1.42
2018-12-15T14:34:04.225Z,-1.40
2018-12-15T14:35:07.656Z,-1.42
2018-12-15T14:36:12.354Z,-1.41
2018-12-15T14:37:17.627Z,-1.40
2018-12-15T14:38:21.796Z,-1.43
2018-12-15T14:39:26.813Z,-1.38
2018-12-15T14:40:30.263Z,-1.40
2018-12-15T14:41:35.157Z,-1.37
2018-12-15T14:42:38.383Z,-1.36
2018-12-15T14:43:41.830Z,-1.38
2018-12-15T14:44:44.812Z,-1.38
2018-12-15T14:45:47.814Z,-1.41
2018-12-15T14:46:51.267Z,-1.40
2018-12-15T14:47:54.379Z,-1.38
2018-12-15T14:48:57.707Z,-1.42
2018-12-15T14:50:00.938Z,-1.38
2018-12-15T14:51:04.103Z,-1.41
2018-12-15T14:52:07.713Z,-1.39
2018-12-15T14:53:11.421Z,-1.40
2018-12-15T14:54:14.217Z,-1.41
2018-12-15T14:55:18.560Z,-1.39
2018-12-15T14:56:22.769Z,-1.41
2018-12-15T14:57:27.283Z,-1.39
2018-12-15T14:58:30.974Z,-1.41
2018-12-15T14:59:34.932Z,-1.41
2018-12-15T15:00:37.786Z,-1.42
2018-12-15T15:01:42.292Z,-1.41
2018-12-15T15:02:45.898Z,-1.41
2018-12-15T15:03:49.439Z,-1.42
2018-12-15T15:04:52.241Z,-1.42
2018-12-15T15:11:31.182Z,-1.45
2018-12-15T15:12:35.508Z,-1.47
2018-12-15T15:13:39.249Z,-1.45
2018-12-15T15:14:42.711Z,-1.44
2018-12-15T15:15:46.228Z,-1.44
2018-12-15T15:16:50.571Z,-1.47
2018-12-15T15:17:53.816Z,-1.50
2018-12-15T15:18:57.078Z,-1.50
2018-12-15T15:20:00.046Z,-1.50